• Join FlightAware (Why Join?)
  • Login
  • US Flag 
11:35PM EST


 

Airport Tracker/Info


-or-


 

Live Flight TrackerFlight Track Log ✈ SWA17 ✈ 15-Jun-2013 ✈ KALB - KBWI

Flight Track Log - Related Links

Times and Time Zones

All times are in EDT time to prevent confusion due to time zone crossing. See the SWA17 flight status page for this flight to view local times or setup timezone preferences in your user account.

Time Position Orientation Groundspeed Altitude Reporting Facility
EDT Latitude Longitude Course Direction KTS MPH feet Rate Location/Type
06:15AM 42.7611 -73.8089 330° Northwest 152 175 1,300  Level Boston Center
06:17AM 42.8128 -73.8497 330° Northwest 203 234 5,400 4,020 Climbing Boston Center
06:17AM 42.8353 -73.8811 314° West 193 222 8,800 3,420 Climbing Boston Center
06:18AM 42.8742 -73.9331 316° Northwest 193 222 11,000 1,080 Climbing Boston Center
06:19AM 42.8750 -74.0267 271° West 203 234 11,000 1,320 Level Boston Center
06:20AM 42.8258 -74.1075 230° Southwest 241 277 13,700 3,000 Climbing Boston Center
06:21AM 42.7403 -74.1081 180° South 241 277 17,100 3,420 Climbing Boston Center
06:22AM 42.6306 -74.0569 161° South 321 369 20,600 3,120 Climbing Boston Center
06:23AM 42.5231 -74.0008 159° South 376 433 23,400 1,800 Climbing Boston Center
06:24AM 42.3989 -73.9358 159° South 421 484 24,300 1,380 Climbing Boston Center
06:25AM 42.2664 -73.8653 158° South 468 539 26,200 1,800 Climbing Boston Center
06:26AM 42.1236 -73.7892 158° South 522 601 28,000 900 Climbing Boston Center
06:27AM 41.9739 -73.7581 171° South 543 625 28,000  Level Boston Center
06:30AM 41.6503 -73.9358 202° Southwest 534 615 28,000  Level New York Center
06:31AM 41.5192 -74.0044 201° Southwest 529 609 28,000  Level New York Center
06:32AM 41.3944 -74.0731 202° Southwest 529 609 28,000  Level New York Center
06:33AM 41.2569 -74.1519 203° Southwest 529 609 28,000  Level New York Center
06:34AM 41.1175 -74.2192 200° South 534 615 28,000  Level New York Center
06:35AM 40.9842 -74.2950 203° Southwest 534 615 28,000  Level New York Center
06:36AM 40.8211 -74.3825 202° Southwest 534 615 28,000  Level New York Center
06:37AM 40.7231 -74.5142 226° Southwest 512 589 28,000  Level New York Center
06:38AM 40.6372 -74.6544 231° Southwest 494 568 28,000 -180 Level New York Center
06:39AM 40.5494 -74.7914 230° Southwest 499 574 27,700 -660 Descending New York Center
06:40AM 40.4553 -74.9222 227° Southwest 499 574 26,700 -1,020 Descending New York Center
06:41AM 40.3608 -75.0556 227° Southwest 499 574 25,700 -1,020 Descending New York Center
06:42AM 40.2706 -75.1858 228° Southwest 494 568 24,700 -1,020 Descending New York Center
06:43AM 40.1783 -75.3133 227° Southwest 494 568 23,700 -1,020 Descending New York Center
06:44AM 40.0900 -75.4378 227° Southwest 489 563 22,700 -1,020 Descending New York Center
06:45AM 40.0017 -75.5592 226° Southwest 483 556 21,700 -1,080 Descending New York Center
06:46AM 39.9178 -75.6753 227° Southwest 468 539 20,600 -1,080 Descending New York Center
06:47AM 39.8519 -75.8003 236° Southwest 440 506 19,600 -1,380 Descending New York Center
06:48AM 39.7864 -75.9200 235° Southwest 420 483 17,900 -2,040 Descending New York Center
06:49AM 39.7222 -76.0475 237° Southwest 398 458 15,600 -2,100 Descending New York Center
06:51AM 39.6000 -76.2667 234° Southwest 332 382 11,500 -1,980 Descending Potomac TRACON
06:52AM 39.5333 -76.3500 224° Southwest 327 376 9,500 -1,500 Descending Potomac TRACON
06:53AM 39.4667 -76.4000 210° Southwest 286 329 8,500 -1,440 Descending Potomac TRACON
06:55AM 39.3333 -76.4667 201° Southwest 282 325 5,400 -1,560 Descending Potomac TRACON
06:56AM 39.2500 -76.4667 180° South 268 308 4,100 -1,080 Descending Potomac TRACON
06:57AM 39.1833 -76.5000 201° Southwest 265 305 3,300 -660 Descending Potomac TRACON
06:58AM 39.1500 -76.5500 229° Southwest 234 269 2,800 -900 Descending Potomac TRACON
06:59AM 39.1167 -76.6000 229° Southwest 177 204 1,600 -1,020 Descending Potomac TRACON
07:00AM 39.1333 -76.6333 303° West 130 150 1,000 -780 Descending Potomac TRACON